Time;durP1;ratioP1;P1;durP2;ratioP2;P2;SDS_P1;SDS_P2;PMS_P1;PMS_P2;Temp;Humidity;BMP_temperature;BMP_pressure;BME280_temperature;BME280_humidity;BME280_pressure;Samples;Min_cycle;Max_cycle;Signal;HPM_P1;HPM_P2
2023/04/15 00:01:59;;;;;;;10.85;4.22;;;7.00;99.90;;;;;;5047201;28;20036;-85
2023/04/15 00:04:26;;;;;;;12.48;6.95;;;6.90;99.90;;;;;;5069055;28;20033;-85
2023/04/15 00:06:53;;;;;;;13.02;7.40;;;6.90;99.90;;;;;;5066682;28;20036;-85
2023/04/15 00:09:20;;;;;;;10.23;4.53;;;6.90;99.90;;;;;;5067611;28;20044;-86
2023/04/15 00:11:46;;;;;;;12.73;7.10;;;6.80;99.90;;;;;;5071040;28;20500;-86
2023/04/15 00:14:12;;;;;;;10.55;6.82;;;6.80;99.90;;;;;;5068568;28;20295;-86
2023/04/15 00:16:38;;;;;;;12.32;7.38;;;6.90;99.90;;;;;;5066991;28;20388;-85
2023/04/15 00:19:03;;;;;;;12.43;6.63;;;6.80;99.90;;;;;;5065911;28;20056;-86
2023/04/15 00:21:30;;;;;;;10.27;4.60;;;6.80;99.90;;;;;;5064416;28;20048;-86
2023/04/15 00:23:56;;;;;;;9.98;4.53;;;6.70;99.90;;;;;;5065127;28;20476;-85
2023/04/15 00:26:22;;;;;;;11.15;7.35;;;6.70;99.90;;;;;;5066981;28;20037;-85
2023/04/15 00:28:47;;;;;;;13.38;8.00;;;6.70;99.90;;;;;;5069073;28;20033;-85
2023/04/15 00:31:14;;;;;;;8.73;4.75;;;6.70;99.90;;;;;;5066953;28;20056;-85
2023/04/15 00:33:39;;;;;;;12.32;7.38;;;6.60;99.90;;;;;;5067656;28;20246;-85
2023/04/15 00:36:06;;;;;;;11.55;4.53;;;6.60;99.90;;;;;;5066707;28;20123;-86
2023/04/15 00:38:32;;;;;;;12.57;5.00;;;6.60;99.90;;;;;;5068433;28;20045;-85
2023/04/15 00:40:58;;;;;;;10.75;4.97;;;6.50;99.90;;;;;;5067102;28;20045;-85
2023/04/15 00:43:25;;;;;;;12.85;7.80;;;6.50;99.90;;;;;;5051010;28;20036;-86
2023/04/15 00:45:53;;;;;;;12.32;7.60;;;6.60;99.90;;;;;;5071859;28;20102;-86
2023/04/15 00:48:19;;;;;;;11.60;5.32;;;6.60;99.90;;;;;;5068356;28;20036;-85
2023/04/15 00:50:45;;;;;;;11.98;7.93;;;6.50;99.90;;;;;;5059196;28;20044;-86
2023/04/15 00:53:11;;;;;;;12.70;7.80;;;6.50;99.90;;;;;;5064394;28;20040;-86
2023/04/15 00:55:36;;;;;;;11.25;4.65;;;6.50;99.90;;;;;;5066300;28;20044;-85
2023/04/15 00:58:02;;;;;;;13.00;8.05;;;6.50;99.90;;;;;;5066412;28;20480;-85
2023/04/15 01:00:29;;;;;;;13.35;8.80;;;6.50;99.90;;;;;;5067719;28;20709;-85
2023/04/15 01:02:54;;;;;;;12.45;4.43;;;6.50;99.90;;;;;;5066716;28;20129;-85
2023/04/15 01:05:20;;;;;;;10.75;4.38;;;6.50;99.90;;;;;;5068673;28;20076;-85
2023/04/15 01:07:47;;;;;;;15.45;8.52;;;6.40;99.90;;;;;;5066373;28;20036;-85
2023/04/15 01:10:13;;;;;;;12.95;8.65;;;6.40;99.90;;;;;;5048967;28;20090;-85
2023/04/15 01:12:39;;;;;;;13.50;9.00;;;6.40;99.90;;;;;;5064770;28;20036;-85
2023/04/15 01:15:05;;;;;;;11.13;4.45;;;6.40;99.90;;;;;;5065862;28;20047;-85
2023/04/15 01:17:31;;;;;;;11.52;5.45;;;6.30;99.90;;;;;;5066961;28;20037;-85
2023/04/15 01:19:57;;;;;;;10.93;5.38;;;6.30;99.90;;;;;;5067577;28;20090;-85
2023/04/15 01:22:25;;;;;;;12.73;8.68;;;6.10;99.90;;;;;;5067422;28;20500;-84
2023/04/15 01:25:05;;;;;;;13.85;5.22;;;6.10;99.90;;;;;;5068633;28;20458;-85
2023/04/15 01:27:31;;;;;;;10.88;5.53;;;5.90;99.90;;;;;;5065961;28;20047;-84
2023/04/15 01:29:57;;;;;;;10.88;8.65;;;5.80;99.90;;;;;;5063869;28;20040;-85
2023/04/15 01:32:23;;;;;;;12.80;5.85;;;5.80;99.90;;;;;;5083114;28;20043;-85
2023/04/15 01:34:48;;;;;;;13.73;9.55;;;5.70;99.90;;;;;;5066938;28;20066;-84
2023/04/15 01:37:14;;;;;;;11.50;5.20;;;5.60;99.90;;;;;;5065915;28;20360;-85
2023/04/15 01:39:40;;;;;;;10.30;5.63;;;5.50;99.90;;;;;;5066611;28;20182;-85
2023/04/15 01:42:05;;;;;;;13.98;9.65;;;5.50;99.90;;;;;;5062350;28;20068;-85
2023/04/15 01:44:31;;;;;;;10.80;5.28;;;5.50;99.90;;;;;;5067509;28;20044;-85
2023/04/15 01:46:57;;;;;;;11.45;5.90;;;5.40;99.90;;;;;;5081064;28;20040;-84
2023/04/15 01:49:22;;;;;;;14.20;9.88;;;5.40;99.90;;;;;;5065713;28;20123;-85
2023/04/15 01:51:48;;;;;;;13.30;6.07;;;5.40;99.90;;;;;;5065494;28;20082;-86
2023/04/15 01:54:14;;;;;;;11.57;5.57;;;5.40;99.90;;;;;;5066133;28;20038;-85
2023/04/15 01:56:39;;;;;;;9.88;5.47;;;5.30;99.90;;;;;;5066832;28;21232;-85
2023/04/15 01:59:05;;;;;;;12.57;5.85;;;5.20;99.90;;;;;;5066753;28;20040;-85
2023/04/15 02:01:30;;;;;;;13.30;10.40;;;5.20;99.90;;;;;;5066540;28;20044;-85
2023/04/15 02:03:56;;;;;;;11.95;6.07;;;5.20;99.90;;;;;;5063313;28;20087;-85
2023/04/15 02:06:22;;;;;;;11.57;5.65;;;5.20;99.90;;;;;;5066849;28;20028;-85
2023/04/15 02:08:48;;;;;;;15.60;11.07;;;5.20;99.90;;;;;;5065671;28;20073;-85
2023/04/15 02:11:14;;;;;;;12.30;6.65;;;5.20;99.90;;;;;;5066036;28;20128;-85
2023/04/15 02:13:40;;;;;;;11.52;6.63;;;5.20;99.90;;;;;;5066341;28;20051;-85
2023/04/15 02:16:16;;;;;;;13.05;7.03;;;5.20;99.90;;;;;;5066332;28;20421;-85
2023/04/15 02:18:43;;;;;;;12.15;7.07;;;5.20;99.90;;;;;;5082021;28;20089;-87
2023/04/15 02:21:08;;;;;;;12.70;7.03;;;5.20;99.90;;;;;;5064662;28;20048;-86
2023/04/15 02:23:34;;;;;;;14.73;12.10;;;5.20;99.90;;;;;;5066243;28;20040;-86
2023/04/15 02:25:59;;;;;;;14.88;6.60;;;5.30;99.90;;;;;;5065486;28;20044;-86
2023/04/15 02:28:26;;;;;;;13.32;6.28;;;5.20;99.90;;;;;;5066987;28;20032;-85
2023/04/15 02:30:53;;;;;;;11.98;6.35;;;5.20;99.90;;;;;;5066427;28;20055;-86
2023/04/15 02:33:20;;;;;;;12.70;6.95;;;5.20;99.90;;;;;;5066363;28;20045;-86
2023/04/15 02:35:46;;;;;;;13.80;6.90;;;5.20;99.90;;;;;;5062325;28;20064;-86
2023/04/15 02:38:13;;;;;;;13.52;6.72;;;5.20;99.90;;;;;;5064136;28;20091;-86
2023/04/15 02:40:39;;;;;;;11.30;6.32;;;5.20;99.90;;;;;;5067119;28;20097;-86
2023/04/15 02:43:05;;;;;;;15.85;12.05;;;5.20;99.90;;;;;;5065118;28;20663;-85
2023/04/15 02:45:32;;;;;;;13.48;7.35;;;5.20;99.90;;;;;;5066096;28;20033;-86
2023/04/15 02:47:57;;;;;;;13.20;7.30;;;5.20;99.90;;;;;;5065641;28;20044;-86
2023/04/15 02:50:24;;;;;;;13.38;7.22;;;5.20;99.90;;;;;;5067452;28;20131;-86
2023/04/15 02:52:51;;;;;;;14.75;12.40;;;5.10;99.90;;;;;;5065295;28;20036;-85
2023/04/15 02:55:17;;;;;;;14.25;6.90;;;5.20;99.90;;;;;;5064795;28;20037;-87
2023/04/15 02:57:42;;;;;;;13.65;7.07;;;5.10;99.90;;;;;;5065973;28;20432;-86
2023/04/15 03:00:10;;;;;;;13.30;6.80;;;5.10;99.90;;;;;;5065789;28;20036;-86
2023/04/15 03:02:37;;;;;;;16.90;12.98;;;5.10;99.90;;;;;;5063953;28;20665;-86
2023/04/15 03:05:04;;;;;;;13.32;7.97;;;5.10;99.90;;;;;;5047487;28;20119;-86
2023/04/15 03:07:30;;;;;;;15.13;8.38;;;5.10;99.90;;;;;;5066506;28;20044;-86
2023/04/15 03:09:56;;;;;;;14.88;7.22;;;5.10;99.90;;;;;;5065790;28;20049;-87
2023/04/15 03:12:22;;;;;;;15.80;7.30;;;5.10;99.90;;;;;;5064985;28;20097;-86
2023/04/15 03:14:47;;;;;;;17.50;14.23;;;5.00;99.90;;;;;;5065783;28;20507;-85
2023/04/15 03:17:13;;;;;;;14.02;8.32;;;5.10;99.90;;;;;;5047258;28;20116;-86
2023/04/15 03:19:39;;;;;;;16.63;7.95;;;5.10;99.90;;;;;;5066816;28;20044;-87
2023/04/15 03:22:04;;;;;;;15.20;8.55;;;5.00;99.90;;;;;;5064175;28;20121;-86
2023/04/15 03:24:30;;;;;;;15.55;9.82;;;5.00;99.90;;;;;;5066702;28;20067;-86
2023/04/15 03:26:56;;;;;;;14.32;7.55;;;5.00;99.90;;;;;;5064485;28;20037;-86
2023/04/15 03:29:22;;;;;;;13.18;7.45;;;4.90;99.90;;;;;;5066699;28;20111;-85
2023/04/15 03:31:48;;;;;;;17.17;9.70;;;4.90;99.90;;;;;;5066948;28;20115;-86
2023/04/15 03:34:13;;;;;;;15.05;8.60;;;4.90;99.90;;;;;;5069955;28;20139;-86
2023/04/15 03:36:39;;;;;;;19.15;16.15;;;4.90;99.90;;;;;;5069311;28;20032;-86
2023/04/15 03:39:05;;;;;;;14.57;7.53;;;4.90;99.90;;;;;;5069743;28;20044;-87
2023/04/15 03:41:31;;;;;;;13.15;6.30;;;4.80;99.90;;;;;;5068737;28;20039;-87
2023/04/15 03:43:57;;;;;;;16.02;7.63;;;4.80;99.90;;;;;;5067551;28;20469;-86
2023/04/15 03:46:22;;;;;;;14.75;8.45;;;4.70;99.90;;;;;;5069092;28;20093;-86
2023/04/15 03:48:48;;;;;;;14.98;8.10;;;4.70;99.90;;;;;;5068173;28;20125;-87
2023/04/15 03:51:14;;;;;;;14.98;7.68;;;4.70;99.90;;;;;;5067692;28;20048;-87
2023/04/15 03:53:39;;;;;;;16.30;9.07;;;4.70;99.90;;;;;;5068990;28;20048;-87
2023/04/15 03:56:05;;;;;;;13.75;8.18;;;4.60;99.90;;;;;;5067614;28;20093;-87
2023/04/15 03:58:31;;;;;;;14.80;8.85;;;4.60;99.90;;;;;;5067984;28;20131;-86
2023/04/15 04:00:56;;;;;;;15.82;9.02;;;4.60;99.90;;;;;;5068653;28;20040;-86
2023/04/15 04:03:22;;;;;;;14.55;8.02;;;4.60;99.90;;;;;;5051816;28;20039;-87
2023/04/15 04:05:48;;;;;;;13.90;8.18;;;4.60;99.90;;;;;;5068727;28;20119;-86
2023/04/15 04:08:15;;;;;;;14.65;7.45;;;4.60;99.90;;;;;;5067644;28;20039;-87
2023/04/15 04:10:40;;;;;;;16.73;9.00;;;4.50;99.90;;;;;;5069135;28;20043;-86
2023/04/15 04:13:06;;;;;;;13.75;8.98;;;4.50;99.90;;;;;;5068682;28;20476;-88
2023/04/15 04:15:32;;;;;;;18.15;16.20;;;4.50;99.90;;;;;;5069043;28;20050;-87
2023/04/15 04:17:57;;;;;;;17.20;8.57;;;4.60;99.90;;;;;;5050510;28;20025;-87
2023/04/15 04:20:23;;;;;;;14.32;7.25;;;4.60;99.90;;;;;;5067891;28;20072;-87
2023/04/15 04:22:49;;;;;;;16.17;9.00;;;4.50;99.90;;;;;;5067446;28;20047;-87
2023/04/15 04:25:15;;;;;;;13.35;7.50;;;4.50;99.90;;;;;;5065488;28;20043;-87
2023/04/15 04:27:40;;;;;;;15.15;8.23;;;4.40;99.90;;;;;;5069660;28;20040;-86
2023/04/15 04:30:07;;;;;;;15.55;8.13;;;4.40;99.90;;;;;;5068905;28;20780;-87
2023/04/15 04:32:32;;;;;;;13.77;8.07;;;4.40;99.90;;;;;;5051453;28;20091;-86
2023/04/15 04:34:58;;;;;;;13.90;7.45;;;4.30;99.90;;;;;;5063170;28;20071;-87
2023/04/15 04:37:24;;;;;;;17.55;8.48;;;4.30;99.90;;;;;;5069237;28;20115;-87
2023/04/15 04:39:49;;;;;;;14.40;8.20;;;4.30;99.90;;;;;;5067125;28;20062;-87
2023/04/15 04:42:15;;;;;;;16.13;8.55;;;4.30;99.90;;;;;;5050050;28;20481;-87
2023/04/15 04:44:41;;;;;;;14.90;8.00;;;4.30;99.90;;;;;;5065941;28;20044;-87
2023/04/15 04:47:07;;;;;;;14.40;8.40;;;4.20;99.90;;;;;;5066597;28;20131;-87
2023/04/15 04:49:33;;;;;;;18.77;16.70;;;4.20;99.90;;;;;;5069040;28;20051;-86
2023/04/15 04:51:59;;;;;;;16.08;9.02;;;4.30;99.90;;;;;;5066661;28;20458;-86
2023/04/15 04:54:25;;;;;;;16.15;8.75;;;4.20;99.90;;;;;;5066533;28;20048;-87
2023/04/15 04:56:50;;;;;;;13.95;7.30;;;4.20;99.90;;;;;;5067546;28;20067;-86
2023/04/15 04:59:16;;;;;;;14.82;8.27;;;4.20;99.90;;;;;;5067434;28;20883;-87
2023/04/15 05:01:41;;;;;;;15.13;8.00;;;4.20;99.90;;;;;;5066629;28;20079;-86
2023/04/15 05:04:07;;;;;;;17.27;8.82;;;4.20;99.90;;;;;;5065526;28;20048;-86
2023/04/15 05:06:35;;;;;;;16.73;8.82;;;4.20;99.90;;;;;;5065585;28;20491;-86
2023/04/15 05:09:01;;;;;;;16.17;8.55;;;4.20;99.90;;;;;;5062661;28;20052;-87
2023/04/15 05:11:28;;;;;;;17.67;9.30;;;4.20;99.90;;;;;;5067264;28;20826;-87
2023/04/15 05:13:53;;;;;;;18.50;10.07;;;4.20;99.90;;;;;;5066538;28;20119;-87
2023/04/15 05:16:19;;;;;;;18.15;8.63;;;4.30;99.90;;;;;;5062406;28;20180;-89
2023/04/15 05:18:45;;;;;;;18.73;9.60;;;4.30;99.90;;;;;;5066446;28;20087;-87
2023/04/15 05:21:11;;;;;;;17.50;10.65;;;4.40;99.90;;;;;;5065588;28;20032;-88
2023/04/15 05:23:36;;;;;;;17.85;9.52;;;4.40;99.90;;;;;;5056650;28;21073;-87
2023/04/15 05:26:02;;;;;;;19.92;10.57;;;4.50;99.90;;;;;;5067840;28;20040;-86
2023/04/15 05:28:28;;;;;;;17.55;9.60;;;4.50;99.90;;;;;;5068076;28;20051;-85
2023/04/15 05:30:54;;;;;;;16.08;9.50;;;4.60;99.90;;;;;;5064037;28;20041;-87
2023/04/15 05:33:19;;;;;;;17.42;10.45;;;4.60;99.90;;;;;;5067876;28;20036;-84
2023/04/15 05:35:45;;;;;;;19.90;10.32;;;4.70;99.90;;;;;;5069271;28;20039;-85
2023/04/15 05:38:11;;;;;;;17.45;9.65;;;4.70;99.90;;;;;;5067582;28;20488;-87
2023/04/15 05:40:36;;;;;;;19.00;10.45;;;4.80;99.90;;;;;;5066940;28;20068;-84
2023/04/15 05:43:02;;;;;;;21.70;10.95;;;4.80;99.90;;;;;;5067350;28;20040;-87
2023/04/15 05:45:28;;;;;;;21.60;11.23;;;4.90;99.90;;;;;;5064809;28;20047;-87
2023/04/15 05:47:53;;;;;;;25.05;22.17;;;5.00;99.90;;;;;;5066122;28;20063;-85
2023/04/15 05:50:20;;;;;;;20.60;10.88;;;5.10;99.90;;;;;;5048240;28;20393;-86
2023/04/15 05:52:45;;;;;;;19.08;11.15;;;5.20;99.90;;;;;;5067471;28;20070;-83
2023/04/15 05:55:11;;;;;;;22.10;12.13;;;5.30;99.90;;;;;;5063756;28;20080;-84
2023/04/15 05:57:37;;;;;;;20.80;11.90;;;5.30;99.90;;;;;;5064926;28;20064;-85
2023/04/15 06:00:04;;;;;;;20.23;12.27;;;5.40;99.90;;;;;;5066127;28;20076;-85
2023/04/15 06:02:30;;;;;;;22.92;20.50;;;5.40;99.90;;;;;;5066365;28;20107;-85
2023/04/15 06:04:56;;;;;;;24.58;21.02;;;5.50;99.90;;;;;;5064060;28;20037;-84
2023/04/15 06:07:22;;;;;;;18.55;10.90;;;5.60;99.90;;;;;;5068281;28;20465;-85
2023/04/15 06:09:48;;;;;;;19.35;11.23;;;5.70;99.90;;;;;;5065418;28;20040;-85
2023/04/15 06:12:14;;;;;;;20.40;11.25;;;5.70;99.90;;;;;;5065529;28;20049;-85
2023/04/15 06:14:40;;;;;;;23.42;20.92;;;5.70;99.90;;;;;;5064256;28;20046;-85
2023/04/15 06:17:06;;;;;;;24.08;21.33;;;5.90;99.90;;;;;;5059538;28;20396;-85
2023/04/15 06:19:32;;;;;;;19.73;12.27;;;6.00;99.90;;;;;;5065991;28;20048;-84
2023/04/15 06:21:58;;;;;;;19.48;11.52;;;6.10;99.90;;;;;;5065359;28;20063;-87
2023/04/15 06:24:24;;;;;;;22.05;19.73;;;6.20;99.90;;;;;;5064307;28;20033;-87
2023/04/15 06:26:50;;;;;;;18.70;11.13;;;6.30;99.90;;;;;;5062160;28;20039;-87
2023/04/15 06:29:15;;;;;;;23.80;21.17;;;6.40;99.90;;;;;;5066154;28;20040;-91
2023/04/15 06:31:41;;;;;;;19.38;11.18;;;6.50;99.90;;;;;;5066620;28;20041;-92
2023/04/15 06:34:06;;;;;;;22.38;20.08;;;6.60;99.90;;;;;;5067092;28;20044;-90
2023/04/15 06:36:32;;;;;;;20.75;12.20;;;6.70;99.90;;;;;;5065763;28;20033;-90
2023/04/15 06:38:58;;;;;;;22.73;19.90;;;6.80;99.90;;;;;;5049973;28;20040;-91
2023/04/15 06:41:24;;;;;;;20.80;11.02;;;6.90;99.90;;;;;;5068149;28;20866;-91
2023/04/15 06:43:50;;;;;;;22.08;19.77;;;7.00;99.90;;;;;;5067181;28;20040;-90
2023/04/15 06:46:15;;;;;;;21.98;19.60;;;7.10;99.90;;;;;;5065534;28;20036;-90
2023/04/15 06:48:41;;;;;;;19.70;11.70;;;7.20;99.90;;;;;;5050709;28;20560;-90
2023/04/15 06:51:07;;;;;;;18.92;12.15;;;7.20;99.90;;;;;;5068155;28;20047;-91
2023/04/15 06:53:32;;;;;;;21.88;19.48;;;7.20;99.90;;;;;;5049805;28;20075;-91
2023/04/15 06:55:58;;;;;;;22.73;20.30;;;7.30;99.90;;;;;;5062336;28;20166;-91
2023/04/15 06:58:24;;;;;;;22.05;19.60;;;7.40;99.90;;;;;;5065261;28;20135;-90
2023/04/15 07:00:49;;;;;;;22.40;20.00;;;7.50;99.90;;;;;;5066562;28;20045;-90
2023/04/15 07:03:15;;;;;;;18.80;11.10;;;7.70;99.90;;;;;;5069146;28;20159;-90
2023/04/15 07:05:41;;;;;;;20.35;18.10;;;7.70;99.90;;;;;;5071646;28;20384;-90
2023/04/15 07:08:06;;;;;;;19.88;17.80;;;7.80;99.90;;;;;;5066875;28;20048;-92
2023/04/15 07:10:33;;;;;;;21.02;18.58;;;7.90;99.90;;;;;;5068860;28;20041;-93
2023/04/15 07:12:59;;;;;;;21.85;18.88;;;8.00;99.90;;;;;;5068474;28;20041;-92
2023/04/15 07:15:24;;;;;;;20.33;17.73;;;8.00;99.90;;;;;;5068060;28;20047;-85
2023/04/15 07:17:50;;;;;;;19.60;17.17;;;8.20;99.90;;;;;;5064148;28;20060;-87
2023/04/15 07:20:15;;;;;;;19.25;17.23;;;8.30;99.90;;;;;;5066107;28;20032;-88
2023/04/15 07:22:41;;;;;;;19.25;17.23;;;8.30;99.90;;;;;;5067241;28;20033;-87
2023/04/15 07:25:07;;;;;;;19.88;16.92;;;8.40;99.90;;;;;;5063726;28;20059;-88
2023/04/15 07:27:33;;;;;;;20.08;16.65;;;8.50;99.90;;;;;;5065746;28;20045;-92
2023/04/15 07:29:59;;;;;;;18.63;16.67;;;8.60;99.90;;;;;;5064460;28;20032;-89
2023/04/15 07:32:24;;;;;;;18.67;16.02;;;8.60;99.90;;;;;;5045612;28;20389;-89
2023/04/15 07:34:50;;;;;;;19.17;16.33;;;8.70;99.90;;;;;;5065243;28;20037;-91
2023/04/15 07:37:16;;;;;;;17.85;15.50;;;8.80;99.90;;;;;;5066317;28;20475;-88
2023/04/15 07:39:42;;;;;;;17.77;14.98;;;8.80;99.90;;;;;;5061718;28;20429;-88
2023/04/15 07:42:09;;;;;;;19.20;16.23;;;8.90;99.90;;;;;;5058199;28;20028;-87
2023/04/15 07:44:34;;;;;;;16.83;15.02;;;8.90;99.90;;;;;;5061855;28;20045;-86
2023/04/15 07:47:01;;;;;;;17.08;15.20;;;9.00;99.90;;;;;;5064869;28;20158;-86
2023/04/15 07:49:27;;;;;;;16.05;13.63;;;9.10;99.90;;;;;;5059720;28;20155;-86
2023/04/15 07:51:53;;;;;;;14.70;12.70;;;9.20;99.90;;;;;;5063048;28;20127;-84
2023/04/15 07:54:19;;;;;;;16.42;12.57;;;9.20;99.90;;;;;;5062631;28;20037;-82
2023/04/15 07:56:45;;;;;;;15.20;11.88;;;9.30;99.90;;;;;;5064689;28;20036;-86
2023/04/15 07:59:10;;;;;;;13.45;11.68;;;9.40;99.90;;;;;;5064380;28;20048;-85
2023/04/15 08:01:36;;;;;;;13.73;11.50;;;9.50;99.90;;;;;;5061102;28;20047;-82
2023/04/15 08:04:02;;;;;;;15.40;11.07;;;9.60;99.90;;;;;;5062230;28;20040;-87
2023/04/15 08:06:28;;;;;;;12.98;9.95;;;9.70;99.90;;;;;;5064605;28;20035;-82
2023/04/15 08:08:54;;;;;;;12.93;9.63;;;9.70;99.90;;;;;;5063784;28;20044;-83
2023/04/15 08:11:20;;;;;;;11.77;9.43;;;9.80;99.90;;;;;;5063792;28;20106;-82
2023/04/15 08:13:46;;;;;;;13.38;9.85;;;9.90;99.90;;;;;;5069091;28;20071;-82
2023/04/15 08:16:19;;;;;;;12.07;9.30;;;9.90;99.90;;;;;;5063933;28;20461;-83
2023/04/15 08:18:46;;;;;;;12.80;9.07;;;10.00;99.90;;;;;;5065610;28;20062;-83
2023/04/15 08:21:12;;;;;;;12.43;8.68;;;10.00;99.90;;;;;;5069839;28;20044;-83
2023/04/15 08:23:38;;;;;;;12.02;8.52;;;10.10;99.90;;;;;;5069647;28;20051;-82
2023/04/15 08:26:05;;;;;;;11.23;7.82;;;10.20;99.90;;;;;;5067030;28;20040;-83
2023/04/15 08:28:30;;;;;;;10.75;7.57;;;10.20;99.90;;;;;;5066146;28;20044;-84
2023/04/15 08:30:56;;;;;;;10.95;7.80;;;10.30;99.90;;;;;;5067478;28;20467;-85
2023/04/15 08:33:22;;;;;;;11.43;7.72;;;10.30;99.90;;;;;;5070021;28;20044;-83
2023/04/15 08:35:48;;;;;;;12.55;7.80;;;10.30;99.90;;;;;;5067466;28;20401;-82
2023/04/15 08:38:14;;;;;;;11.40;7.72;;;10.30;99.90;;;;;;5067013;28;20396;-83
2023/04/15 08:40:44;;;;;;;11.82;8.05;;;10.30;99.90;;;;;;5068971;28;20191;-82
2023/04/15 08:43:41;;;;;;;11.18;7.22;;;10.30;99.90;;;;;;5068548;28;20037;-83
2023/04/15 08:46:09;;;;;;;12.23;7.13;;;10.20;99.90;;;;;;5065707;28;20063;-83
2023/04/15 08:48:39;;;;;;;9.25;6.05;;;10.20;99.90;;;;;;5067194;28;20173;-83
2023/04/15 08:51:06;;;;;;;10.48;6.43;;;10.30;99.90;;;;;;5067095;28;20044;-83
2023/04/15 08:53:32;;;;;;;10.80;6.07;;;10.30;99.90;;;;;;5066681;28;20041;-83
2023/04/15 08:56:03;;;;;;;8.93;5.97;;;10.30;99.90;;;;;;5065889;28;20052;-82
2023/04/15 08:58:29;;;;;;;9.32;5.20;;;10.30;99.90;;;;;;5063682;28;20064;-83
2023/04/15 09:00:56;;;;;;;8.10;5.50;;;10.10;99.90;;;;;;5068243;28;20428;-83
2023/04/15 09:03:22;;;;;;;10.90;5.95;;;10.10;99.90;;;;;;5068187;28;20043;-85
2023/04/15 09:05:49;;;;;;;10.40;5.90;;;10.00;99.90;;;;;;5068657;28;20042;-83
2023/04/15 09:08:15;;;;;;;9.50;6.15;;;10.00;99.90;;;;;;5062857;28;20036;-84
2023/04/15 09:10:41;;;;;;;9.70;5.63;;;10.00;99.90;;;;;;5068832;28;20063;-84
2023/04/15 09:13:07;;;;;;;11.40;5.65;;;10.00;99.90;;;;;;5066524;28;20048;-83
2023/04/15 09:15:37;;;;;;;8.73;5.57;;;10.00;99.90;;;;;;5068306;28;20048;-82
2023/04/15 09:18:03;;;;;;;9.07;5.60;;;10.00;99.90;;;;;;5063062;28;20140;-84
2023/04/15 09:20:28;;;;;;;9.30;5.40;;;10.00;99.90;;;;;;5066778;28;20124;-84
2023/04/15 09:22:54;;;;;;;9.15;4.93;;;10.00;99.90;;;;;;5065936;28;20059;-83
2023/04/15 09:25:28;;;;;;;9.07;5.15;;;10.10;99.90;;;;;;5068094;28;20039;-83
2023/04/15 09:27:59;;;;;;;9.38;5.10;;;10.10;99.90;;;;;;5066238;28;20094;-83
2023/04/15 09:30:26;;;;;;;9.93;5.22;;;10.10;99.90;;;;;;5065180;28;20046;-84
2023/04/15 09:32:57;;;;;;;10.00;5.10;;;10.10;99.90;;;;;;5067365;28;20052;-85
2023/04/15 09:35:25;;;;;;;12.00;5.65;;;10.00;99.90;;;;;;5062802;28;20056;-82
2023/04/15 09:37:51;;;;;;;8.77;5.30;;;10.00;99.90;;;;;;5067315;28;20698;-83
2023/04/15 09:40:37;;;;;;;11.57;6.05;;;9.90;99.90;;;;;;5067068;28;20032;-82
2023/04/15 09:43:04;;;;;;;9.30;4.55;;;9.90;99.90;;;;;;5067298;28;20110;-84
2023/04/15 09:45:30;;;;;;;7.75;3.95;;;9.90;99.90;;;;;;5067921;28;20389;-83
2023/04/15 09:48:14;;;;;;;10.63;4.72;;;9.80;99.90;;;;;;5065581;28;20047;-83
2023/04/15 09:50:43;;;;;;;8.10;4.10;;;10.00;99.90;;;;;;5068124;28;20044;-83
2023/04/15 09:53:17;;;;;;;7.43;3.50;;;10.10;99.90;;;;;;5065697;28;20107;-84
2023/04/15 09:55:53;;;;;;;6.75;3.03;;;10.20;99.90;;;;;;5064081;28;20048;-83
2023/04/15 09:58:20;;;;;;;5.68;2.42;;;10.20;99.90;;;;;;5066347;28;20040;-83
2023/04/15 10:00:50;;;;;;;6.43;2.88;;;10.20;99.90;;;;;;5067622;28;20381;-84
2023/04/15 10:03:20;;;;;;;5.55;2.80;;;10.30;99.90;;;;;;5067047;28;20119;-82
2023/04/15 10:05:49;;;;;;;7.85;2.97;;;10.20;99.90;;;;;;5067787;28;20040;-84
2023/04/15 10:08:17;;;;;;;6.30;2.88;;;10.20;99.90;;;;;;5065493;28;20429;-83
2023/04/15 10:10:45;;;;;;;6.55;2.50;;;10.30;99.90;;;;;;5066738;28;20047;-82
2023/04/15 10:13:16;;;;;;;6.13;2.50;;;10.30;99.90;;;;;;5066396;28;20515;-83
2023/04/15 10:15:44;;;;;;;7.13;3.25;;;10.30;99.90;;;;;;5062678;28;20510;-82
2023/04/15 10:18:11;;;;;;;5.88;2.95;;;10.30;99.90;;;;;;5066675;28;20051;-83
2023/04/15 10:20:38;;;;;;;7.45;3.33;;;10.40;99.90;;;;;;5067225;28;20036;-83
2023/04/15 10:23:04;;;;;;;6.75;3.25;;;10.40;99.90;;;;;;5065004;28;20044;-82
2023/04/15 10:25:32;;;;;;;9.65;5.45;;;10.40;99.90;;;;;;5067815;28;20044;-84
2023/04/15 10:27:59;;;;;;;6.68;3.00;;;10.40;99.90;;;;;;5065310;28;20055;-84
2023/04/15 10:30:25;;;;;;;5.72;2.85;;;10.40;99.90;;;;;;5066320;28;20075;-83
2023/04/15 10:32:52;;;;;;;6.90;3.83;;;10.30;99.90;;;;;;5065963;28;20075;-83
2023/04/15 10:35:20;;;;;;;7.05;3.55;;;10.30;99.90;;;;;;5061658;28;20040;-85
2023/04/15 10:37:46;;;;;;;5.95;3.00;;;10.30;99.90;;;;;;5067018;28;20800;-87
2023/04/15 10:40:32;;;;;;;6.30;3.50;;;10.40;99.90;;;;;;5063355;28;20049;-85
2023/04/15 10:43:00;;;;;;;5.82;3.00;;;10.50;99.90;;;;;;5064606;28;20055;-85
2023/04/15 10:45:34;;;;;;;5.97;2.78;;;10.60;99.90;;;;;;5067497;28;20173;-83
2023/04/15 10:48:06;;;;;;;5.50;2.72;;;10.60;99.90;;;;;;5045419;28;20119;-82
2023/04/15 10:50:32;;;;;;;4.88;2.10;;;10.60;99.90;;;;;;5063871;28;20199;-83
2023/04/15 10:52:58;;;;;;;5.30;2.58;;;10.60;99.90;;;;;;5064457;28;20123;-86
2023/04/15 10:55:26;;;;;;;4.95;2.65;;;10.50;99.90;;;;;;5065852;28;20097;-86
2023/04/15 10:58:02;;;;;;;5.43;2.70;;;10.50;99.90;;;;;;5064279;28;20052;-91
2023/04/15 11:00:31;;;;;;;6.95;3.30;;;10.50;99.90;;;;;;5065590;28;20478;-87
2023/04/15 11:03:03;;;;;;;6.28;2.65;;;10.40;99.90;;;;;;5066553;28;20036;-84
2023/04/15 11:05:38;;;;;;;7.00;2.85;;;10.40;99.90;;;;;;5065415;28;20048;-88
2023/04/15 11:08:04;;;;;;;6.50;2.95;;;10.40;99.90;;;;;;5066267;28;20036;-87
2023/04/15 11:10:32;;;;;;;5.95;2.55;;;10.40;99.90;;;;;;5067192;28;20635;-85
2023/04/15 11:13:14;;;;;;;5.93;2.72;;;10.40;99.90;;;;;;5064767;28;20401;-86
2023/04/15 11:15:44;;;;;;;6.75;2.70;;;10.40;99.90;;;;;;5064743;28;20051;-86
2023/04/15 11:18:21;;;;;;;9.50;4.90;;;10.50;99.90;;;;;;5061387;28;20382;-84
2023/04/15 11:21:02;;;;;;;8.63;4.35;;;10.50;99.90;;;;;;5066923;28;20094;-85
2023/04/15 11:23:39;;;;;;;7.25;3.30;;;10.60;99.90;;;;;;5046291;28;20388;-84
2023/04/15 11:26:08;;;;;;;6.43;3.03;;;10.60;99.90;;;;;;5043939;28;20040;-85
2023/04/15 11:28:35;;;;;;;6.78;2.72;;;10.50;99.90;;;;;;5063408;28;20076;-88
2023/04/15 11:31:19;;;;;;;5.43;2.60;;;10.50;99.90;;;;;;5064676;28;20150;-83
2023/04/15 11:34:00;;;;;;;6.97;3.00;;;10.60;99.90;;;;;;5047219;28;20041;-85
2023/04/15 11:36:27;;;;;;;7.55;3.65;;;10.60;99.90;;;;;;5062523;28;20047;-87
2023/04/15 11:38:53;;;;;;;10.80;3.78;;;10.50;99.90;;;;;;5072687;28;20047;-85
2023/04/15 11:41:25;;;;;;;7.72;2.97;;;10.50;99.90;;;;;;5068582;28;21885;-86
2023/04/15 11:43:51;;;;;;;8.38;3.05;;;10.40;99.90;;;;;;5069253;28;20064;-85
2023/04/15 11:46:17;;;;;;;8.23;3.30;;;10.50;99.90;;;;;;5071889;28;20108;-88
2023/04/15 11:48:44;;;;;;;7.38;3.40;;;10.50;99.90;;;;;;5070145;28;20044;-86
2023/04/15 11:51:11;;;;;;;7.07;3.20;;;10.60;99.90;;;;;;5069453;28;20040;-87
2023/04/15 11:53:40;;;;;;;7.97;3.03;;;10.60;99.90;;;;;;5072954;28;20036;-88
2023/04/15 11:56:08;;;;;;;7.70;3.03;;;10.60;99.90;;;;;;5073705;28;20040;-88
2023/04/15 11:58:38;;;;;;;7.50;3.22;;;10.60;99.90;;;;;;5073598;28;20048;-87
2023/04/15 12:01:05;;;;;;;6.38;3.10;;;10.50;99.90;;;;;;5073619;28;20040;-87
2023/04/15 12:03:41;;;;;;;7.57;3.30;;;10.50;99.90;;;;;;5055782;28;20044;-88
2023/04/15 12:06:18;;;;;;;7.68;3.03;;;10.50;99.90;;;;;;5072915;28;20337;-88
2023/04/15 12:09:03;;;;;;;8.80;3.45;;;10.50;99.90;;;;;;5074138;28;20494;-87
2023/04/15 12:11:51;;;;;;;9.15;3.25;;;10.50;99.90;;;;;;5079356;28;20047;-89
2023/04/15 12:14:30;;;;;;;10.57;3.60;;;10.50;99.90;;;;;;5078682;28;20048;-86
2023/04/15 12:17:01;;;;;;;9.15;3.50;;;10.40;99.90;;;;;;5073832;28;20039;-87
2023/04/15 12:19:31;;;;;;;10.52;4.05;;;10.50;99.90;;;;;;5060722;28;20080;-88
2023/04/15 12:22:18;;;;;;;9.57;3.58;;;10.50;99.90;;;;;;5072314;28;20033;-87
2023/04/15 12:24:48;;;;;;;8.45;3.20;;;10.50;99.90;;;;;;5072307;28;20111;-87
2023/04/15 12:27:15;;;;;;;9.07;3.10;;;10.60;99.90;;;;;;5078169;28;20071;-88
2023/04/15 12:29:42;;;;;;;7.97;2.88;;;10.70;99.90;;;;;;5076322;28;20111;-88
2023/04/15 12:32:13;;;;;;;6.70;2.45;;;10.70;99.90;;;;;;5072154;28;20047;-88
2023/04/15 12:34:41;;;;;;;7.72;2.50;;;10.80;99.90;;;;;;5073448;28;20049;-90
2023/04/15 12:37:12;;;;;;;7.95;2.30;;;10.70;99.90;;;;;;5053569;28;20041;-90
2023/04/15 12:39:40;;;;;;;7.50;2.60;;;10.70;99.90;;;;;;5068401;28;20123;-88
2023/04/15 12:42:06;;;;;;;8.60;2.67;;;10.70;99.90;;;;;;5071070;28;20274;-89
2023/04/15 12:44:33;;;;;;;9.30;2.90;;;10.60;99.90;;;;;;5074180;28;20080;-92